Time;durP1;ratioP1;P1;durP2;ratioP2;P2;SDS_P1;SDS_P2;PMS_P1;PMS_P2;Temp;Humidity;BMP_temperature;BMP_pressure;BME280_temperature;BME280_humidity;BME280_pressure;Samples;Min_cycle;Max_cycle;Signal;HPM_P1;HPM_P2
2023/05/07 00:00:54;;;;;;;16.08;10.77;;;17.90;99.90;;;;;;5087787;28;20040;-65
2023/05/07 00:03:21;;;;;;;23.67;10.60;;;17.90;99.90;;;;;;5092109;28;20048;-65
2023/05/07 00:05:48;;;;;;;17.80;10.45;;;17.80;99.90;;;;;;5102509;28;20040;-65
2023/05/07 00:08:14;;;;;;;15.57;10.95;;;17.90;99.90;;;;;;5096004;28;20056;-65
2023/05/07 00:10:40;;;;;;;18.75;11.35;;;17.90;99.90;;;;;;5097865;28;20032;-65
2023/05/07 00:13:06;;;;;;;20.35;10.93;;;17.80;99.90;;;;;;5093521;28;20039;-65
2023/05/07 00:15:32;;;;;;;16.33;12.00;;;17.70;99.90;;;;;;5108178;27;20036;-65
2023/05/07 00:17:59;;;;;;;15.18;10.73;;;17.70;99.90;;;;;;5082757;28;20032;-65
2023/05/07 00:20:25;;;;;;;16.80;11.23;;;17.80;99.90;;;;;;5090944;28;20052;-65
2023/05/07 00:22:51;;;;;;;17.08;11.27;;;17.80;99.90;;;;;;5081720;28;20024;-64
2023/05/07 00:25:19;;;;;;;15.52;11.82;;;17.70;99.90;;;;;;5095183;28;20032;-65
2023/05/07 00:27:45;;;;;;;17.48;11.40;;;17.60;99.90;;;;;;5090674;28;20043;-65
2023/05/07 00:30:11;;;;;;;17.83;11.77;;;17.50;99.90;;;;;;5084413;28;20392;-65
2023/05/07 00:32:38;;;;;;;20.30;12.35;;;17.50;99.90;;;;;;5084000;28;20036;-65
2023/05/07 00:35:05;;;;;;;18.45;11.30;;;17.50;99.90;;;;;;5091282;28;20381;-65
2023/05/07 00:37:31;;;;;;;19.25;11.18;;;17.60;99.90;;;;;;5082927;28;20036;-65
2023/05/07 00:39:57;;;;;;;18.23;11.18;;;17.50;99.90;;;;;;5072391;28;20032;-65
2023/05/07 00:42:23;;;;;;;20.33;11.57;;;17.30;99.90;;;;;;5072253;28;20039;-65
2023/05/07 00:44:50;;;;;;;20.60;11.65;;;17.30;99.90;;;;;;5085009;28;20043;-65
2023/05/07 00:47:16;;;;;;;20.65;11.00;;;17.30;99.90;;;;;;5083517;28;20044;-65
2023/05/07 00:49:43;;;;;;;18.90;10.90;;;17.40;99.90;;;;;;5071360;28;22219;-65
2023/05/07 00:52:11;;;;;;;18.30;11.55;;;17.40;99.90;;;;;;5088179;28;20048;-65
2023/05/07 00:54:37;;;;;;;19.40;11.13;;;17.30;99.90;;;;;;5074224;28;20024;-65
2023/05/07 00:57:03;;;;;;;18.55;11.38;;;17.40;99.90;;;;;;5073968;28;20024;-65
2023/05/07 00:59:31;;;;;;;19.70;11.13;;;17.50;99.90;;;;;;5090449;28;20055;-65
2023/05/07 01:01:57;;;;;;;21.38;11.40;;;17.50;99.90;;;;;;5084489;28;20044;-65
2023/05/07 01:04:23;;;;;;;16.83;10.13;;;17.50;99.90;;;;;;5073293;28;20036;-64
2023/05/07 01:06:50;;;;;;;20.00;10.15;;;17.60;99.90;;;;;;5092119;28;20483;-65
2023/05/07 01:09:16;;;;;;;19.50;10.32;;;17.60;99.90;;;;;;5056780;28;20032;-65
2023/05/07 01:11:42;;;;;;;18.10;10.13;;;17.60;99.90;;;;;;5071440;28;20140;-65
2023/05/07 01:14:09;;;;;;;25.90;10.00;;;17.60;99.90;;;;;;5052969;28;20036;-64
2023/05/07 01:16:36;;;;;;;15.35;9.45;;;17.60;99.90;;;;;;5069169;28;20033;-65
2023/05/07 01:19:02;;;;;;;20.25;9.77;;;17.60;99.90;;;;;;5087006;28;20047;-65
2023/05/07 01:21:28;;;;;;;14.75;9.40;;;17.60;99.90;;;;;;5071142;28;20039;-65
2023/05/07 01:23:55;;;;;;;17.25;9.68;;;17.60;99.90;;;;;;5073243;28;20397;-65
2023/05/07 01:26:22;;;;;;;19.35;9.63;;;17.60;99.90;;;;;;5084749;28;20029;-65
2023/05/07 01:28:48;;;;;;;16.60;9.23;;;17.70;99.90;;;;;;5091117;28;20422;-65
2023/05/07 01:31:14;;;;;;;17.50;10.68;;;17.70;99.90;;;;;;5084340;28;20048;-65
2023/05/07 01:33:40;;;;;;;14.55;9.80;;;17.60;99.90;;;;;;5073728;28;20489;-65
2023/05/07 01:36:08;;;;;;;15.23;9.70;;;17.70;99.90;;;;;;5072721;28;20637;-65
2023/05/07 01:38:35;;;;;;;19.33;11.30;;;17.50;99.90;;;;;;5073026;28;20476;-65
2023/05/07 01:41:01;;;;;;;21.85;11.02;;;17.50;99.90;;;;;;5085324;28;20370;-65
2023/05/07 01:43:28;;;;;;;22.13;11.43;;;17.50;99.90;;;;;;5070463;28;20029;-65
2023/05/07 01:45:55;;;;;;;22.42;11.18;;;17.50;99.90;;;;;;5068685;28;20029;-65
2023/05/07 01:48:21;;;;;;;15.88;10.93;;;17.50;99.90;;;;;;5071547;28;20021;-65
2023/05/07 01:50:47;;;;;;;22.27;10.85;;;17.50;99.90;;;;;;5069739;28;20033;-65
2023/05/07 01:53:13;;;;;;;16.77;10.50;;;17.50;99.90;;;;;;5086790;28;20043;-65
2023/05/07 01:55:39;;;;;;;18.90;10.63;;;17.50;99.90;;;;;;5091642;28;20028;-65
2023/05/07 01:58:06;;;;;;;19.95;11.30;;;17.50;99.90;;;;;;5090832;28;20040;-65
2023/05/07 02:00:32;;;;;;;18.67;10.52;;;17.50;99.90;;;;;;5086328;28;20045;-65
2023/05/07 02:02:58;;;;;;;18.85;10.80;;;17.50;99.90;;;;;;5085218;28;20059;-65
2023/05/07 02:05:24;;;;;;;20.10;10.52;;;17.50;99.90;;;;;;5084671;28;20479;-65
2023/05/07 02:07:50;;;;;;;21.02;10.65;;;17.50;99.90;;;;;;5092470;28;20036;-64
2023/05/07 02:10:16;;;;;;;18.40;10.77;;;17.50;99.90;;;;;;5094480;28;20334;-65
2023/05/07 02:12:42;;;;;;;24.42;12.00;;;17.60;99.90;;;;;;5093953;28;20047;-65
2023/05/07 02:15:09;;;;;;;21.80;11.50;;;17.60;99.90;;;;;;5087807;28;20036;-65
2023/05/07 02:17:37;;;;;;;21.80;12.32;;;17.60;99.90;;;;;;5101313;28;20043;-67
2023/05/07 02:20:03;;;;;;;27.70;12.40;;;17.60;99.90;;;;;;5093378;28;20036;-65
2023/05/07 02:22:30;;;;;;;20.70;11.70;;;17.60;99.90;;;;;;5088559;28;20389;-65
2023/05/07 02:24:56;;;;;;;22.52;11.90;;;17.50;99.90;;;;;;5096790;28;20401;-65
2023/05/07 02:27:22;;;;;;;25.38;11.77;;;17.60;99.90;;;;;;5100012;28;20055;-65
2023/05/07 02:29:48;;;;;;;23.42;12.48;;;17.60;99.90;;;;;;5103288;28;20523;-65
2023/05/07 02:32:14;;;;;;;21.83;11.90;;;17.50;99.90;;;;;;5078010;28;20048;-65
2023/05/07 02:34:40;;;;;;;22.77;11.98;;;17.60;99.90;;;;;;5089153;28;20040;-65
2023/05/07 02:37:06;;;;;;;26.40;12.55;;;17.60;99.90;;;;;;5094001;28;20039;-65
2023/05/07 02:39:32;;;;;;;20.25;11.85;;;17.60;99.90;;;;;;5094659;28;20032;-65
2023/05/07 02:41:58;;;;;;;20.80;12.27;;;17.60;99.90;;;;;;5093065;28;20055;-65
2023/05/07 02:44:24;;;;;;;21.67;10.63;;;17.60;99.90;;;;;;5093939;28;20028;-65
2023/05/07 02:46:50;;;;;;;23.58;11.02;;;17.60;99.90;;;;;;5094062;28;20036;-65
2023/05/07 02:49:16;;;;;;;22.60;11.35;;;17.60;99.90;;;;;;5094432;28;20461;-65
2023/05/07 02:51:43;;;;;;;27.25;12.40;;;17.60;99.90;;;;;;5091678;28;20036;-65
2023/05/07 02:54:09;;;;;;;19.50;11.13;;;17.60;99.90;;;;;;5093838;28;20491;-65
2023/05/07 02:56:35;;;;;;;22.95;11.48;;;17.60;99.90;;;;;;5093525;28;20036;-65
2023/05/07 02:59:01;;;;;;;21.35;11.30;;;17.60;99.90;;;;;;5093615;28;20048;-65
2023/05/07 03:01:27;;;;;;;19.63;10.98;;;17.60;99.90;;;;;;5080448;28;20048;-65
2023/05/07 03:03:54;;;;;;;24.08;11.00;;;17.60;99.90;;;;;;5087312;28;20028;-65
2023/05/07 03:06:20;;;;;;;25.65;10.98;;;17.60;99.90;;;;;;5089193;28;20406;-65
2023/05/07 03:08:46;;;;;;;21.75;11.82;;;17.60;99.90;;;;;;5084432;28;20035;-65
2023/05/07 03:11:12;;;;;;;26.63;12.55;;;17.60;99.90;;;;;;5086910;28;20465;-65
2023/05/07 03:13:38;;;;;;;21.25;10.60;;;17.60;99.90;;;;;;5088243;28;20035;-65
2023/05/07 03:16:05;;;;;;;19.60;10.32;;;17.60;99.90;;;;;;5095941;28;20115;-65
2023/05/07 03:18:31;;;;;;;23.17;11.05;;;17.60;99.90;;;;;;5101954;28;20042;-65
2023/05/07 03:20:57;;;;;;;17.27;9.95;;;17.60;99.90;;;;;;5076813;28;20064;-65
2023/05/07 03:23:23;;;;;;;21.88;10.43;;;17.60;99.90;;;;;;5093428;28;20027;-65
2023/05/07 03:25:49;;;;;;;18.38;9.98;;;17.60;99.90;;;;;;5091890;28;20665;-65
2023/05/07 03:28:15;;;;;;;20.38;10.30;;;17.60;99.90;;;;;;5090595;28;20031;-65
2023/05/07 03:30:41;;;;;;;20.35;10.38;;;17.60;99.90;;;;;;5088793;28;20532;-65
2023/05/07 03:33:07;;;;;;;21.35;9.73;;;17.60;99.90;;;;;;5090637;28;20048;-65
2023/05/07 03:35:33;;;;;;;16.95;9.82;;;17.60;99.90;;;;;;5085684;28;20035;-65
2023/05/07 03:37:59;;;;;;;22.85;9.70;;;17.60;99.90;;;;;;5089369;28;20035;-65
2023/05/07 03:40:26;;;;;;;21.15;9.10;;;17.60;99.90;;;;;;5104582;28;20397;-65
2023/05/07 03:42:52;;;;;;;16.88;9.02;;;17.60;99.90;;;;;;5078493;28;20165;-65
2023/05/07 03:45:18;;;;;;;15.85;9.20;;;17.60;99.90;;;;;;5091807;28;21675;-65
2023/05/07 03:47:44;;;;;;;16.75;8.80;;;17.60;99.90;;;;;;5090932;28;20416;-65
2023/05/07 03:50:10;;;;;;;21.33;9.43;;;17.60;99.90;;;;;;5092432;28;20028;-65
2023/05/07 03:52:37;;;;;;;23.50;8.70;;;17.60;99.90;;;;;;5089349;28;20043;-65
2023/05/07 03:55:03;;;;;;;16.60;8.18;;;17.60;99.90;;;;;;5092730;28;20042;-65
2023/05/07 03:57:29;;;;;;;18.17;8.52;;;17.60;99.90;;;;;;5085255;28;20392;-65
2023/05/07 03:59:55;;;;;;;20.02;8.38;;;17.60;99.90;;;;;;5091546;28;20056;-65
2023/05/07 04:02:21;;;;;;;19.15;8.07;;;17.60;99.90;;;;;;5089254;28;20040;-65
2023/05/07 04:04:49;;;;;;;18.83;8.13;;;17.60;99.90;;;;;;5090346;28;20088;-65
2023/05/07 04:07:15;;;;;;;17.30;8.55;;;17.60;99.90;;;;;;5091650;28;20048;-65
2023/05/07 04:09:41;;;;;;;15.55;7.82;;;17.50;99.90;;;;;;5088995;28;20032;-65
2023/05/07 04:12:07;;;;;;;16.20;7.80;;;17.50;99.90;;;;;;5091489;28;20036;-65
2023/05/07 04:14:33;;;;;;;17.35;7.95;;;17.50;99.90;;;;;;5092230;28;20039;-65
2023/05/07 04:16:59;;;;;;;15.98;7.40;;;17.50;99.90;;;;;;5091631;28;20063;-65
2023/05/07 04:19:25;;;;;;;13.55;7.40;;;17.50;99.90;;;;;;5090235;28;20036;-65
2023/05/07 04:21:52;;;;;;;17.75;7.95;;;17.50;99.90;;;;;;5091751;28;20406;-65
2023/05/07 04:24:18;;;;;;;20.52;8.48;;;17.50;99.90;;;;;;5090186;28;20043;-65
2023/05/07 04:26:44;;;;;;;14.55;7.63;;;17.50;99.90;;;;;;5082288;28;20043;-65
2023/05/07 04:29:11;;;;;;;19.27;7.85;;;17.50;99.90;;;;;;5081909;28;20036;-65
2023/05/07 04:31:37;;;;;;;15.50;7.18;;;17.50;99.90;;;;;;5083649;28;20047;-65
2023/05/07 04:34:03;;;;;;;16.02;7.85;;;17.50;99.90;;;;;;5091435;28;20040;-65
2023/05/07 04:36:30;;;;;;;19.63;7.25;;;17.40;99.90;;;;;;5090963;28;20024;-65
2023/05/07 04:38:56;;;;;;;18.20;7.70;;;17.50;99.90;;;;;;5072359;28;20047;-65
2023/05/07 04:41:22;;;;;;;17.20;7.47;;;17.50;99.90;;;;;;5091895;28;20039;-65
2023/05/07 04:43:48;;;;;;;16.85;7.38;;;17.40;99.90;;;;;;5092132;28;20028;-65
2023/05/07 04:46:14;;;;;;;14.00;6.85;;;17.40;99.90;;;;;;5090909;28;20374;-65
2023/05/07 04:48:40;;;;;;;15.88;7.70;;;17.40;99.90;;;;;;5092407;28;20032;-65
2023/05/07 04:51:06;;;;;;;13.27;7.00;;;17.50;99.90;;;;;;5091402;28;20388;-65
2023/05/07 04:53:32;;;;;;;18.58;7.60;;;17.40;99.90;;;;;;5092207;28;20032;-65
2023/05/07 04:55:59;;;;;;;15.82;7.65;;;17.40;99.90;;;;;;5091935;28;20408;-67
2023/05/07 04:58:25;;;;;;;20.85;7.32;;;17.40;99.90;;;;;;5091311;28;20044;-65
2023/05/07 05:00:51;;;;;;;14.77;6.88;;;17.40;99.90;;;;;;5091180;28;20028;-65
2023/05/07 05:03:17;;;;;;;16.40;7.00;;;17.50;99.90;;;;;;5091009;28;20038;-65
2023/05/07 05:05:44;;;;;;;17.73;6.32;;;17.50;99.90;;;;;;5092056;28;20472;-65
2023/05/07 05:08:10;;;;;;;17.52;7.28;;;17.50;99.90;;;;;;5082966;28;20040;-65
2023/05/07 05:10:36;;;;;;;15.43;7.07;;;17.50;99.90;;;;;;5091018;28;20044;-65
2023/05/07 05:13:02;;;;;;;14.82;7.15;;;17.50;99.90;;;;;;5091116;28;20032;-65
2023/05/07 05:15:28;;;;;;;17.63;7.85;;;17.40;99.90;;;;;;5091630;28;20032;-65
2023/05/07 05:17:54;;;;;;;17.80;7.30;;;17.40;99.90;;;;;;5091805;28;20575;-65
2023/05/07 05:20:20;;;;;;;14.30;7.20;;;17.40;99.90;;;;;;5091564;28;20031;-65
2023/05/07 05:22:46;;;;;;;13.48;7.43;;;17.40;99.90;;;;;;5091350;28;20036;-65
2023/05/07 05:25:12;;;;;;;11.70;7.45;;;17.40;99.90;;;;;;5072492;28;20049;-65
2023/05/07 05:27:39;;;;;;;15.88;8.10;;;17.40;99.90;;;;;;5091886;28;20024;-65
2023/05/07 05:30:05;;;;;;;16.60;7.53;;;17.40;99.90;;;;;;5075188;28;20047;-65
2023/05/07 05:32:31;;;;;;;14.68;7.70;;;17.40;99.90;;;;;;5089589;28;20035;-65
2023/05/07 05:34:57;;;;;;;14.75;7.68;;;17.40;99.90;;;;;;5091737;28;20028;-65
2023/05/07 05:37:24;;;;;;;13.68;6.93;;;17.40;99.90;;;;;;5091384;28;20487;-65
2023/05/07 05:39:50;;;;;;;13.73;7.30;;;17.50;99.90;;;;;;5071998;28;20499;-65
2023/05/07 05:42:16;;;;;;;9.35;6.63;;;17.50;99.90;;;;;;5092895;28;20381;-65
2023/05/07 05:44:42;;;;;;;12.63;6.72;;;17.40;99.90;;;;;;5077403;28;20039;-65
2023/05/07 05:47:08;;;;;;;9.73;6.35;;;17.50;99.90;;;;;;5094309;28;20484;-65
2023/05/07 05:49:35;;;;;;;11.55;7.10;;;17.40;99.90;;;;;;5095052;28;20032;-64
2023/05/07 05:52:01;;;;;;;9.20;6.22;;;17.50;99.90;;;;;;5093741;28;20067;-65
2023/05/07 05:54:27;;;;;;;12.55;6.38;;;17.40;99.90;;;;;;5095246;28;20028;-65
2023/05/07 05:56:53;;;;;;;9.77;6.00;;;17.30;99.90;;;;;;5094473;28;20361;-64
2023/05/07 05:59:19;;;;;;;8.57;5.78;;;17.40;99.90;;;;;;5093471;28;20044;-67
2023/05/07 06:01:45;;;;;;;9.95;5.78;;;17.30;99.90;;;;;;5074062;28;20047;-64
2023/05/07 06:04:11;;;;;;;7.72;4.70;;;17.30;99.90;;;;;;5094589;28;20043;-64
2023/05/07 06:06:37;;;;;;;9.32;5.60;;;17.30;99.90;;;;;;5093669;28;20028;-64
2023/05/07 06:09:03;;;;;;;8.80;5.72;;;17.30;99.90;;;;;;5092266;28;20027;-65
2023/05/07 06:11:29;;;;;;;13.15;6.03;;;17.40;99.90;;;;;;5094014;28;20813;-64
2023/05/07 06:13:55;;;;;;;9.38;6.45;;;17.40;99.90;;;;;;5093810;28;20438;-64
2023/05/07 06:16:22;;;;;;;9.27;6.10;;;17.40;99.90;;;;;;5092532;28;20036;-64
2023/05/07 06:18:48;;;;;;;8.75;6.70;;;17.50;99.90;;;;;;5093192;28;20036;-67
2023/05/07 06:21:15;;;;;;;10.40;7.20;;;17.50;99.90;;;;;;5093255;28;20035;-64
2023/05/07 06:23:41;;;;;;;12.02;7.05;;;17.50;99.90;;;;;;5094767;28;20028;-65
2023/05/07 06:26:07;;;;;;;13.23;7.03;;;17.50;99.90;;;;;;5094803;28;20039;-65
2023/05/07 06:28:36;;;;;;;13.93;7.40;;;17.50;99.90;;;;;;5092917;28;20039;-65
2023/05/07 06:31:15;;;;;;;12.32;7.72;;;17.60;99.90;;;;;;5093917;28;20032;-65
2023/05/07 06:33:41;;;;;;;11.52;7.25;;;17.60;99.90;;;;;;5094445;28;20465;-65
2023/05/07 06:36:07;;;;;;;12.57;7.53;;;17.60;99.90;;;;;;5093151;28;20377;-65
2023/05/07 06:38:33;;;;;;;18.77;7.55;;;17.60;99.90;;;;;;5094075;28;20440;-65
2023/05/07 06:40:59;;;;;;;13.55;7.88;;;17.60;99.90;;;;;;5093744;28;20024;-65
2023/05/07 06:43:25;;;;;;;15.05;7.00;;;17.60;99.90;;;;;;5094090;28;20032;-65
2023/05/07 06:45:51;;;;;;;13.20;7.07;;;17.70;99.90;;;;;;5093752;28;20028;-65
2023/05/07 06:48:17;;;;;;;17.85;7.28;;;17.70;99.90;;;;;;5089560;28;20031;-65
2023/05/07 06:50:43;;;;;;;11.50;7.00;;;17.80;99.90;;;;;;5086851;28;20395;-65
2023/05/07 06:53:09;;;;;;;11.20;6.95;;;17.80;99.90;;;;;;5089540;28;20036;-65
2023/05/07 06:55:37;;;;;;;10.98;6.63;;;17.80;99.90;;;;;;5085894;28;20489;-68
2023/05/07 06:58:04;;;;;;;12.02;6.68;;;17.80;99.90;;;;;;5093708;28;20040;-67
2023/05/07 07:00:30;;;;;;;11.70;6.47;;;17.80;99.90;;;;;;5064602;28;20481;-65
2023/05/07 07:02:56;;;;;;;14.77;6.70;;;17.90;99.90;;;;;;5085171;28;20033;-65
2023/05/07 07:05:22;;;;;;;13.95;7.00;;;18.00;99.90;;;;;;5060649;28;20036;-65
2023/05/07 07:07:52;;;;;;;11.27;6.95;;;18.00;99.90;;;;;;5103325;28;20046;-65
2023/05/07 07:10:21;;;;;;;14.15;6.53;;;18.00;99.90;;;;;;5089641;28;20035;-65
2023/05/07 07:12:48;;;;;;;13.45;6.65;;;18.10;99.90;;;;;;5084228;28;20052;-65
2023/05/07 07:15:14;;;;;;;11.10;6.22;;;18.10;99.90;;;;;;5069332;28;20043;-65
2023/05/07 07:17:40;;;;;;;12.07;6.50;;;18.10;99.90;;;;;;5090044;28;20032;-66
2023/05/07 07:20:07;;;;;;;13.00;6.78;;;18.20;99.90;;;;;;5078558;28;20508;-65
2023/05/07 07:22:33;;;;;;;11.05;6.40;;;18.20;99.90;;;;;;5098767;28;20051;-64
2023/05/07 07:24:59;;;;;;;11.43;6.65;;;18.10;99.90;;;;;;5085983;28;20024;-66
2023/05/07 07:27:25;;;;;;;8.00;6.40;;;18.10;99.90;;;;;;5092824;28;20044;-65
2023/05/07 07:29:52;;;;;;;10.00;6.03;;;18.20;99.90;;;;;;5092918;28;20044;-65
2023/05/07 07:32:18;;;;;;;8.70;6.38;;;18.20;99.90;;;;;;5090385;28;20408;-65
2023/05/07 07:34:44;;;;;;;7.50;6.40;;;18.30;99.90;;;;;;5093101;28;20039;-65
2023/05/07 07:37:10;;;;;;;9.90;5.75;;;18.30;99.90;;;;;;5105235;28;20035;-65
2023/05/07 07:39:39;;;;;;;9.82;6.30;;;18.40;99.90;;;;;;5073412;28;20032;-65
2023/05/07 07:42:05;;;;;;;10.07;7.10;;;18.40;99.90;;;;;;5089597;28;20488;-65
2023/05/07 07:44:31;;;;;;;9.02;6.53;;;18.50;99.90;;;;;;5089941;28;20028;-66
2023/05/07 07:46:57;;;;;;;10.82;6.22;;;18.60;99.90;;;;;;5071403;28;20032;-66
2023/05/07 07:49:23;;;;;;;8.63;6.88;;;18.60;99.90;;;;;;5088870;28;20024;-66
2023/05/07 07:51:49;;;;;;;7.35;6.53;;;18.70;99.90;;;;;;5090300;28;20039;-66
2023/05/07 07:54:16;;;;;;;8.90;5.97;;;18.60;99.90;;;;;;5092045;28;20024;-66
2023/05/07 07:56:42;;;;;;;8.10;6.00;;;18.60;99.90;;;;;;5089534;28;20051;-66
2023/05/07 07:59:08;;;;;;;9.55;6.10;;;18.70;99.90;;;;;;5090693;28;20499;-64
2023/05/07 08:01:34;;;;;;;7.78;6.53;;;18.70;99.90;;;;;;5087354;28;20148;-64
2023/05/07 08:04:02;;;;;;;6.28;5.50;;;18.50;99.90;;;;;;5061705;28;20025;-64
2023/05/07 08:06:29;;;;;;;8.35;6.68;;;18.60;99.90;;;;;;5098736;28;20031;-64
2023/05/07 08:08:55;;;;;;;7.40;5.70;;;18.70;99.90;;;;;;5086425;28;20039;-64
2023/05/07 08:11:21;;;;;;;5.85;4.95;;;18.80;99.90;;;;;;5083220;28;20032;-64
2023/05/07 08:13:47;;;;;;;7.25;5.03;;;18.70;99.90;;;;;;5083327;28;20043;-64
2023/05/07 08:16:14;;;;;;;5.82;4.15;;;18.70;99.90;;;;;;5079076;28;20036;-65
2023/05/07 08:18:40;;;;;;;6.50;4.82;;;18.70;99.90;;;;;;5090175;28;20028;-66
2023/05/07 08:21:06;;;;;;;5.82;4.75;;;18.70;99.90;;;;;;5080246;28;20024;-66
2023/05/07 08:23:34;;;;;;;4.72;4.30;;;18.80;99.90;;;;;;5084258;28;20036;-66
2023/05/07 08:26:00;;;;;;;4.82;4.40;;;18.70;99.90;;;;;;5091666;28;20403;-66
2023/05/07 08:28:26;;;;;;;5.13;4.32;;;18.70;99.90;;;;;;5076717;28;20035;-66
2023/05/07 08:30:53;;;;;;;4.70;4.30;;;18.70;99.90;;;;;;5076964;28;20028;-66
2023/05/07 08:33:19;;;;;;;4.05;3.58;;;18.70;99.90;;;;;;5066429;28;20047;-67
2023/05/07 08:35:45;;;;;;;3.92;3.63;;;18.70;99.90;;;;;;5092212;28;20024;-65
2023/05/07 08:38:11;;;;;;;4.35;4.05;;;18.70;99.90;;;;;;5091166;28;20027;-68
2023/05/07 08:40:38;;;;;;;4.00;3.80;;;18.70;99.90;;;;;;5093503;28;20031;-66
2023/05/07 08:43:07;;;;;;;3.83;3.53;;;18.70;99.90;;;;;;5072047;28;20048;-66
2023/05/07 08:45:34;;;;;;;3.28;3.08;;;18.80;99.90;;;;;;5080834;28;20040;-66
2023/05/07 08:48:02;;;;;;;5.10;4.70;;;18.90;99.90;;;;;;5087533;28;20405;-66
2023/05/07 08:50:29;;;;;;;4.22;3.88;;;18.80;99.90;;;;;;5091043;28;20036;-66
2023/05/07 08:52:56;;;;;;;4.40;4.10;;;18.80;99.90;;;;;;5090652;28;20055;-66
2023/05/07 08:55:22;;;;;;;3.95;3.58;;;18.80;99.90;;;;;;5073138;28;20384;-66
2023/05/07 08:57:48;;;;;;;3.53;3.10;;;18.90;99.90;;;;;;5073402;28;20020;-67
2023/05/07 09:00:15;;;;;;;3.25;3.00;;;18.90;99.90;;;;;;5090695;28;20040;-66
2023/05/07 09:02:41;;;;;;;4.35;4.03;;;19.10;99.90;;;;;;5090607;28;20739;-66
2023/05/07 09:05:08;;;;;;;3.08;2.83;;;19.20;99.90;;;;;;5090360;28;20115;-66
2023/05/07 09:07:34;;;;;;;3.85;3.35;;;19.30;99.90;;;;;;5088875;28;20507;-66
2023/05/07 09:10:06;;;;;;;4.72;4.30;;;19.40;99.90;;;;;;5088914;28;20410;-70
2023/05/07 09:12:34;;;;;;;13.20;6.75;;;19.40;99.90;;;;;;5089064;28;20036;-70
2023/05/07 09:15:02;;;;;;;4.97;4.57;;;19.50;99.90;;;;;;5086834;28;20377;-69
2023/05/07 09:17:28;;;;;;;4.65;4.22;;;19.50;99.90;;;;;;5094833;28;20055;-70
2023/05/07 09:19:54;;;;;;;4.70;4.40;;;19.70;99.90;;;;;;5093810;28;20040;-69
2023/05/07 09:22:20;;;;;;;4.32;3.92;;;19.70;99.90;;;;;;5072927;28;20039;-70
2023/05/07 09:24:48;;;;;;;4.57;4.18;;;19.80;99.90;;;;;;5094653;28;20043;-70
2023/05/07 09:27:14;;;;;;;4.50;4.30;;;19.90;99.90;;;;;;5077006;28;20039;-69
2023/05/07 09:29:40;;;;;;;4.63;4.38;;;19.90;99.90;;;;;;5080059;28;20040;-67
2023/05/07 09:32:07;;;;;;;5.60;4.15;;;19.80;99.90;;;;;;5092830;28;20039;-68
2023/05/07 09:34:34;;;;;;;4.50;4.10;;;19.80;99.90;;;;;;5079951;28;20032;-65
2023/05/07 09:37:03;;;;;;;4.07;3.78;;;19.80;99.90;;;;;;5077100;28;20043;-68
2023/05/07 09:39:43;;;;;;;5.30;4.90;;;19.80;99.90;;;;;;5070383;28;20465;-68
2023/05/07 09:42:09;;;;;;;4.70;4.40;;;19.80;99.90;;;;;;5069086;28;20039;-68
2023/05/07 09:44:35;;;;;;;5.45;5.15;;;19.90;99.90;;;;;;5079357;28;20032;-66
2023/05/07 09:47:01;;;;;;;4.95;4.60;;;20.10;99.90;;;;;;5089455;28;20047;-66
2023/05/07 09:49:29;;;;;;;6.00;5.57;;;20.10;99.90;;;;;;5069752;28;20574;-65
2023/05/07 09:51:56;;;;;;;5.40;5.10;;;20.30;99.90;;;;;;5070094;28;20393;-65
2023/05/07 09:54:22;;;;;;;5.43;5.05;;;20.40;99.90;;;;;;5089887;28;20415;-68
2023/05/07 09:56:49;;;;;;;5.80;5.40;;;20.40;99.90;;;;;;5069249;28;20020;-68
2023/05/07 09:59:15;;;;;;;5.57;5.20;;;20.50;99.90;;;;;;5089977;28;20267;-65
2023/05/07 10:01:42;;;;;;;5.68;5.38;;;20.60;99.90;;;;;;5094388;28;20044;-66
2023/05/07 10:04:10;;;;;;;6.05;5.65;;;20.70;99.90;;;;;;5089607;28;20048;-66
2023/05/07 10:06:36;;;;;;;6.55;6.05;;;20.90;99.90;;;;;;5078399;28;20024;-67
2023/05/07 10:09:02;;;;;;;6.28;5.78;;;21.00;99.90;;;;;;5074924;28;20032;-68
2023/05/07 10:11:28;;;;;;;6.40;5.78;;;21.30;99.90;;;;;;5091632;28;20034;-69
2023/05/07 10:13:55;;;;;;;7.00;6.50;;;21.50;99.90;;;;;;5089490;28;20024;-64
2023/05/07 10:16:21;;;;;;;7.25;6.68;;;21.60;99.90;;;;;;5081898;28;20028;-64
2023/05/07 10:18:48;;;;;;;6.78;6.35;;;21.70;99.90;;;;;;5094548;28;20039;-64
2023/05/07 10:21:19;;;;;;;6.95;6.35;;;21.50;99.90;;;;;;5091254;28;20068;-68
2023/05/07 10:23:46;;;;;;;8.50;6.50;;;21.50;99.90;;;;;;5090014;28;20043;-64
2023/05/07 10:26:12;;;;;;;6.15;5.65;;;21.50;99.90;;;;;;5089924;28;20035;-64
2023/05/07 10:28:39;;;;;;;6.80;6.00;;;21.50;99.90;;;;;;5085719;28;20059;-65
2023/05/07 10:31:12;;;;;;;6.30;5.53;;;21.40;99.90;;;;;;5091229;28;20039;-65
2023/05/07 10:33:38;;;;;;;5.57;5.00;;;21.30;99.90;;;;;;5076560;28;20401;-65
2023/05/07 10:36:04;;;;;;;5.57;5.18;;;21.20;99.90;;;;;;5078959;28;20384;-67
2023/05/07 10:38:30;;;;;;;5.78;5.28;;;21.10;99.90;;;;;;5058085;28;20507;-67
2023/05/07 10:40:56;;;;;;;5.70;5.20;;;21.00;99.90;;;;;;5074682;28;20469;-67
2023/05/07 10:43:22;;;;;;;5.53;5.13;;;21.10;99.90;;;;;;5075200;28;20043;-66
2023/05/07 10:46:09;;;;;;;4.80;4.50;;;21.00;99.90;;;;;;5078779;28;20039;-66
2023/05/07 10:48:37;;;;;;;5.53;5.07;;;21.00;99.90;;;;;;5091751;28;20040;-67
2023/05/07 10:51:20;;;;;;;4.75;4.45;;;21.00;99.90;;;;;;5063218;28;20024;-67
2023/05/07 10:53:46;;;;;;;5.35;4.95;;;21.00;99.90;;;;;;5092458;28;20032;-66
2023/05/07 10:56:18;;;;;;;5.28;4.95;;;21.10;99.90;;;;;;5093295;28;20465;-66
2023/05/07 10:58:44;;;;;;;5.07;4.75;;;21.00;99.90;;;;;;5084987;28;20485;-66
2023/05/07 11:01:12;;;;;;;6.25;5.75;;;21.00;99.90;;;;;;5092376;28;20039;-66
2023/05/07 11:04:14;;;;;;;5.95;5.50;;;21.00;99.90;;;;;;5090125;28;20043;-66
2023/05/07 11:06:40;;;;;;;5.07;4.78;;;21.10;99.90;;;;;;5082472;28;20059;-65
2023/05/07 11:09:07;;;;;;;4.97;4.65;;;21.20;99.90;;;;;;5092593;28;20024;-66
2023/05/07 11:11:52;;;;;;;4.95;4.65;;;21.20;99.90;;;;;;5091595;28;20043;-66
2023/05/07 11:14:41;;;;;;;5.78;5.38;;;21.20;99.90;;;;;;5078685;28;20031;-66
2023/05/07 11:17:07;;;;;;;7.72;7.13;;;21.30;99.90;;;;;;5086288;28;20028;-66
2023/05/07 11:19:55;;;;;;;5.53;5.15;;;21.30;99.90;;;;;;5074833;28;20036;-66
2023/05/07 11:22:42;;;;;;;5.22;4.82;;;21.40;99.90;;;;;;5091782;28;20028;-66
2023/05/07 11:25:08;;;;;;;5.03;4.72;;;21.50;99.90;;;;;;5090024;28;20032;-67
2023/05/07 11:27:34;;;;;;;5.95;5.60;;;21.50;99.90;;;;;;5091741;28;20388;-67
2023/05/07 11:30:03;;;;;;;5.43;5.00;;;21.60;99.90;;;;;;5092114;28;20032;-68
2023/05/07 11:32:31;;;;;;;6.03;5.63;;;21.70;99.90;;;;;;5090650;28;20032;-69
2023/05/07 11:34:59;;;;;;;9.50;8.73;;;21.80;99.90;;;;;;5093006;28;20027;-70
2023/05/07 11:37:26;;;;;;;6.32;5.93;;;22.00;99.90;;;;;;5092408;28;20028;-71
2023/05/07 11:40:06;;;;;;;6.57;6.18;;;22.10;99.90;;;;;;5073912;28;20027;-70
2023/05/07 11:42:39;;;;;;;7.57;6.97;;;22.40;99.90;;;;;;5091526;28;20043;-72
2023/05/07 11:45:07;;;;;;;6.95;6.45;;;22.60;99.90;;;;;;5091237;28;20028;-71
2023/05/07 11:47:33;;;;;;;7.15;6.70;;;22.70;99.90;;;;;;5084791;28;20476;-71
2023/05/07 11:50:04;;;;;;;6.95;6.50;;;22.70;99.90;;;;;;5074728;28;20393;-71
2023/05/07 11:52:30;;;;;;;8.20;7.35;;;22.80;99.90;;;;;;5091516;28;20024;-71
2023/05/07 11:54:57;;;;;;;6.53;6.03;;;22.70;99.90;;;;;;5057666;28;20029;-71
2023/05/07 11:57:24;;;;;;;6.72;6.32;;;22.60;99.90;;;;;;5080016;28;20024;-70
2023/05/07 11:59:57;;;;;;;6.43;6.00;;;22.50;99.90;;;;;;5073973;28;20052;-71
2023/05/07 12:02:24;;;;;;;6.95;6.55;;;22.50;99.90;;;;;;5090474;28;20039;-68
2023/05/07 12:04:51;;;;;;;5.70;5.30;;;22.40;99.90;;;;;;5086171;28;20046;-65
2023/05/07 12:07:20;;;;;;;5.78;5.38;;;22.30;99.90;;;;;;5095649;28;20020;-65
2023/05/07 12:09:47;;;;;;;5.38;5.03;;;22.30;99.90;;;;;;5091677;28;20032;-66
2023/05/07 12:12:15;;;;;;;5.75;5.35;;;22.40;99.90;;;;;;5086167;28;20028;-69
2023/05/07 12:14:42;;;;;;;5.72;5.32;;;22.50;99.90;;;;;;5091719;28;20058;-66
2023/05/07 12:17:09;;;;;;;5.53;5.22;;;22.70;99.90;;;;;;5090982;28;20039;-68
2023/05/07 12:19:35;;;;;;;5.60;5.10;;;22.80;99.90;;;;;;5057570;28;20032;-65
2023/05/07 12:22:03;;;;;;;5.40;5.10;;;22.80;99.90;;;;;;5075079;28;20027;-66
2023/05/07 12:24:29;;;;;;;5.70;5.20;;;22.70;99.90;;;;;;5054161;28;20055;-71
2023/05/07 12:26:55;;;;;;;6.07;5.50;;;22.70;99.90;;;;;;5085255;28;20032;-71
2023/05/07 12:29:22;;;;;;;5.40;5.07;;;22.80;99.90;;;;;;5092049;28;20028;-70
2023/05/07 12:31:49;;;;;;;5.47;5.07;;;23.00;99.90;;;;;;5076286;28;20413;-68
2023/05/07 12:34:16;;;;;;;5.65;5.32;;;23.10;99.90;;;;;;5091118;28;20043;-68
2023/05/07 12:36:42;;;;;;;5.45;5.05;;;23.10;99.90;;;;;;5089886;28;20036;-68